sensor_id;sensor_type;location;lat;lon;timestamp;pressure;altitude;pressure_sealevel;temperature;humidity
37848;BME280;23688;33.130;-117.188;2023-12-20T00:00:19;99107.63;;;17.52;92.96
37848;BME280;23688;33.130;-117.188;2023-12-20T00:02:45;99112.97;;;17.67;92.27
37848;BME280;23688;33.130;-117.188;2023-12-20T00:05:15;99113.00;;;17.75;91.69
37848;BME280;23688;33.130;-117.188;2023-12-20T00:07:41;99105.13;;;17.70;91.51
37848;BME280;23688;33.130;-117.188;2023-12-20T00:10:08;99110.34;;;17.66;91.93
37848;BME280;23688;33.130;-117.188;2023-12-20T00:12:34;99097.88;;;17.36;92.61
37848;BME280;23688;33.130;-117.188;2023-12-20T00:15:01;99116.38;;;17.54;92.16
37848;BME280;23688;33.130;-117.188;2023-12-20T00:17:27;99111.13;;;17.55;92.09
37848;BME280;23688;33.130;-117.188;2023-12-20T00:19:55;99103.28;;;17.60;91.46
37848;BME280;23688;33.130;-117.188;2023-12-20T00:22:21;99110.38;;;17.75;90.81
37848;BME280;23688;33.130;-117.188;2023-12-20T00:24:47;99118.38;;;17.87;90.31
37848;BME280;23688;33.130;-117.188;2023-12-20T00:27:14;99114.06;;;17.92;89.63
37848;BME280;23688;33.130;-117.188;2023-12-20T00:29:40;99108.63;;;17.72;89.89
37848;BME280;23688;33.130;-117.188;2023-12-20T00:32:08;99114.78;;;17.76;90.46
37848;BME280;23688;33.130;-117.188;2023-12-20T00:34:35;99107.78;;;17.76;90.26
37848;BME280;23688;33.130;-117.188;2023-12-20T00:37:01;99120.94;;;17.78;90.44
37848;BME280;23688;33.130;-117.188;2023-12-20T00:39:28;99124.41;;;17.77;90.17
37848;BME280;23688;33.130;-117.188;2023-12-20T00:41:54;99131.44;;;17.78;90.29
37848;BME280;23688;33.130;-117.188;2023-12-20T00:44:20;99123.56;;;17.78;90.63
37848;BME280;23688;33.130;-117.188;2023-12-20T00:46:46;99105.09;;;17.67;90.73
37848;BME280;23688;33.130;-117.188;2023-12-20T00:49:13;99123.56;;;17.78;90.58
37848;BME280;23688;33.130;-117.188;2023-12-20T00:51:39;99123.50;;;17.75;90.72
37848;BME280;23688;33.130;-117.188;2023-12-20T00:54:05;99126.03;;;17.60;92.26
37848;BME280;23688;33.130;-117.188;2023-12-20T00:56:32;99122.56;;;17.61;92.56
37848;BME280;23688;33.130;-117.188;2023-12-20T00:58:58;99123.41;;;17.57;92.58
37848;BME280;23688;33.130;-117.188;2023-12-20T01:01:25;99125.22;;;17.64;93.20
37848;BME280;23688;33.130;-117.188;2023-12-20T01:03:51;99124.34;;;17.68;93.22
37848;BME280;23688;33.130;-117.188;2023-12-20T01:06:18;99113.84;;;17.66;92.86
37848;BME280;23688;33.130;-117.188;2023-12-20T01:08:45;99128.72;;;17.66;92.79
37848;BME280;23688;33.130;-117.188;2023-12-20T01:11:11;99121.66;;;17.57;93.58
37848;BME280;23688;33.130;-117.188;2023-12-20T01:13:39;99112.00;;;17.54;93.88
37848;BME280;23688;33.130;-117.188;2023-12-20T01:16:06;99120.81;;;17.63;94.10
37848;BME280;23688;33.130;-117.188;2023-12-20T01:18:32;99137.44;;;17.65;93.61
37848;BME280;23688;33.130;-117.188;2023-12-20T01:21:02;99119.91;;;17.58;93.63
37848;BME280;23688;33.130;-117.188;2023-12-20T01:23:29;99119.88;;;17.53;93.44
37848;BME280;23688;33.130;-117.188;2023-12-20T01:25:55;99141.78;;;17.57;93.54
37848;BME280;23688;33.130;-117.188;2023-12-20T01:28:22;99133.00;;;17.51;93.99
37848;BME280;23688;33.130;-117.188;2023-12-20T01:30:48;99138.16;;;17.39;94.61
37848;BME280;23688;33.130;-117.188;2023-12-20T01:33:15;99142.47;;;17.32;94.61
37848;BME280;23688;33.130;-117.188;2023-12-20T01:35:43;99151.16;;;17.27;95.16
37848;BME280;23688;33.130;-117.188;2023-12-20T01:38:10;99147.53;;;17.14;95.77
37848;BME280;23688;33.130;-117.188;2023-12-20T01:40:36;99150.97;;;17.05;97.10
37848;BME280;23688;33.130;-117.188;2023-12-20T01:43:08;99144.66;;;16.89;98.51
37848;BME280;23688;33.130;-117.188;2023-12-20T01:45:36;99163.16;;;17.00;99.11
37848;BME280;23688;33.130;-117.188;2023-12-20T01:48:04;99161.34;;;16.93;99.22
37848;BME280;23688;33.130;-117.188;2023-12-20T01:50:31;99152.25;;;16.63;100.00
37848;BME280;23688;33.130;-117.188;2023-12-20T01:53:00;99168.53;;;16.36;100.00
37848;BME280;23688;33.130;-117.188;2023-12-20T01:55:31;99178.75;;;16.18;100.00
37848;BME280;23688;33.130;-117.188;2023-12-20T01:57:59;99185.88;;;16.31;100.00
37848;BME280;23688;33.130;-117.188;2023-12-20T02:00:27;99181.47;;;16.25;100.00
37848;BME280;23688;33.130;-117.188;2023-12-20T02:02:54;99195.44;;;16.24;100.00
37848;BME280;23688;33.130;-117.188;2023-12-20T02:05:21;99201.56;;;16.26;100.00
37848;BME280;23688;33.130;-117.188;2023-12-20T02:07:48;99198.22;;;16.37;100.00
37848;BME280;23688;33.130;-117.188;2023-12-20T02:10:15;99186.88;;;16.41;100.00
37848;BME280;23688;33.130;-117.188;2023-12-20T02:12:42;99186.13;;;16.50;100.00
37848;BME280;23688;33.130;-117.188;2023-12-20T02:15:08;99186.97;;;16.47;100.00
37848;BME280;23688;33.130;-117.188;2023-12-20T02:17:35;99174.94;;;16.63;100.00
37848;BME280;23688;33.130;-117.188;2023-12-20T02:20:02;99159.31;;;16.71;100.00
37848;BME280;23688;33.130;-117.188;2023-12-20T02:22:28;99181.38;;;16.88;100.00
37848;BME280;23688;33.130;-117.188;2023-12-20T02:24:54;99181.47;;;16.96;100.00
37848;BME280;23688;33.130;-117.188;2023-12-20T02:27:22;99171.84;;;16.96;100.00
37848;BME280;23688;33.130;-117.188;2023-12-20T02:29:50;99189.44;;;17.06;100.00
37848;BME280;23688;33.130;-117.188;2023-12-20T02:32:17;99191.22;;;17.07;100.00
37848;BME280;23688;33.130;-117.188;2023-12-20T02:34:46;99195.63;;;17.13;100.00
37848;BME280;23688;33.130;-117.188;2023-12-20T02:37:13;99184.25;;;17.13;100.00
37848;BME280;23688;33.130;-117.188;2023-12-20T02:39:39;99181.66;;;17.16;100.00
37848;BME280;23688;33.130;-117.188;2023-12-20T02:42:06;99179.00;;;17.11;100.00
37848;BME280;23688;33.130;-117.188;2023-12-20T02:44:32;99182.47;;;17.08;100.00
37848;BME280;23688;33.130;-117.188;2023-12-20T02:46:59;99208.75;;;17.13;100.00
37848;BME280;23688;33.130;-117.188;2023-12-20T02:49:26;99211.13;;;16.90;100.00
37848;BME280;23688;33.130;-117.188;2023-12-20T02:51:53;99207.72;;;16.99;100.00
37848;BME280;23688;33.130;-117.188;2023-12-20T02:54:19;99181.50;;;16.99;100.00
37848;BME280;23688;33.130;-117.188;2023-12-20T02:56:46;99154.34;;;16.94;100.00
37848;BME280;23688;33.130;-117.188;2023-12-20T02:59:12;99162.19;;;16.92;100.00
37848;BME280;23688;33.130;-117.188;2023-12-20T03:01:45;99192.72;;;16.87;100.00
37848;BME280;23688;33.130;-117.188;2023-12-20T03:04:12;99208.41;;;16.81;100.00
37848;BME280;23688;33.130;-117.188;2023-12-20T03:06:39;99223.09;;;16.73;100.00
37848;BME280;23688;33.130;-117.188;2023-12-20T03:09:05;99219.66;;;16.77;100.00
37848;BME280;23688;33.130;-117.188;2023-12-20T03:11:31;99223.16;;;16.77;100.00
37848;BME280;23688;33.130;-117.188;2023-12-20T03:13:58;99207.16;;;16.54;100.00
37848;BME280;23688;33.130;-117.188;2023-12-20T03:16:24;99229.16;;;16.67;100.00
37848;BME280;23688;33.130;-117.188;2023-12-20T03:18:50;99231.09;;;16.79;100.00
37848;BME280;23688;33.130;-117.188;2023-12-20T03:21:16;99229.38;;;16.82;100.00
37848;BME280;23688;33.130;-117.188;2023-12-20T03:23:43;99224.13;;;16.81;100.00
37848;BME280;23688;33.130;-117.188;2023-12-20T03:26:10;99217.31;;;16.98;100.00
37848;BME280;23688;33.130;-117.188;2023-12-20T03:28:36;99192.78;;;16.95;100.00
37848;BME280;23688;33.130;-117.188;2023-12-20T03:31:03;99199.91;;;17.03;100.00
37848;BME280;23688;33.130;-117.188;2023-12-20T03:33:29;99207.84;;;17.09;100.00
37848;BME280;23688;33.130;-117.188;2023-12-20T03:35:56;99211.34;;;17.11;100.00
37848;BME280;23688;33.130;-117.188;2023-12-20T03:38:22;99215.72;;;17.11;100.00
37848;BME280;23688;33.130;-117.188;2023-12-20T03:40:51;99213.97;;;17.11;100.00
37848;BME280;23688;33.130;-117.188;2023-12-20T03:43:19;99207.91;;;17.19;100.00
37848;BME280;23688;33.130;-117.188;2023-12-20T03:45:45;99206.22;;;17.24;100.00
37848;BME280;23688;33.130;-117.188;2023-12-20T03:48:15;99191.31;;;17.21;100.00
37848;BME280;23688;33.130;-117.188;2023-12-20T03:50:41;99188.75;;;17.24;100.00
37848;BME280;23688;33.130;-117.188;2023-12-20T03:53:08;99206.28;;;17.30;100.00
37848;BME280;23688;33.130;-117.188;2023-12-20T03:55:34;99216.81;;;17.33;100.00
37848;BME280;23688;33.130;-117.188;2023-12-20T03:58:00;99208.06;;;17.36;100.00
37848;BME280;23688;33.130;-117.188;2023-12-20T04:00:28;99201.03;;;17.30;100.00
37848;BME280;23688;33.130;-117.188;2023-12-20T04:02:54;99205.41;;;17.31;100.00
37848;BME280;23688;33.130;-117.188;2023-12-20T04:05:20;99214.19;;;17.36;100.00
37848;BME280;23688;33.130;-117.188;2023-12-20T04:07:47;99215.97;;;17.37;100.00
37848;BME280;23688;33.130;-117.188;2023-12-20T04:10:16;99217.75;;;17.40;100.00
37848;BME280;23688;33.130;-117.188;2023-12-20T04:12:42;99215.13;;;17.40;100.00
37848;BME280;23688;33.130;-117.188;2023-12-20T04:15:09;99220.34;;;17.38;100.00
37848;BME280;23688;33.130;-117.188;2023-12-20T04:17:37;99227.41;;;17.42;100.00
37848;BME280;23688;33.130;-117.188;2023-12-20T04:20:04;99217.72;;;17.38;100.00
37848;BME280;23688;33.130;-117.188;2023-12-20T04:22:30;99228.22;;;17.38;100.00
37848;BME280;23688;33.130;-117.188;2023-12-20T04:24:57;99225.56;;;17.35;100.00
37848;BME280;23688;33.130;-117.188;2023-12-20T04:27:23;99235.19;;;17.36;100.00
37848;BME280;23688;33.130;-117.188;2023-12-20T04:29:49;99217.66;;;17.30;100.00
37848;BME280;23688;33.130;-117.188;2023-12-20T04:32:16;99211.47;;;17.24;100.00
37848;BME280;23688;33.130;-117.188;2023-12-20T04:34:42;99227.28;;;17.30;100.00
37848;BME280;23688;33.130;-117.188;2023-12-20T04:37:08;99229.00;;;17.28;100.00
37848;BME280;23688;33.130;-117.188;2023-12-20T04:39:36;99228.16;;;17.29;100.00
37848;BME280;23688;33.130;-117.188;2023-12-20T04:42:03;99242.19;;;17.34;100.00
37848;BME280;23688;33.130;-117.188;2023-12-20T04:44:29;99241.34;;;17.37;100.00
37848;BME280;23688;33.130;-117.188;2023-12-20T04:46:57;99240.47;;;17.38;100.00
37848;BME280;23688;33.130;-117.188;2023-12-20T04:49:23;99229.91;;;17.33;100.00
37848;BME280;23688;33.130;-117.188;2023-12-20T04:51:49;99238.69;;;17.35;100.00
37848;BME280;23688;33.130;-117.188;2023-12-20T04:54:16;99237.78;;;17.33;100.00
37848;BME280;23688;33.130;-117.188;2023-12-20T04:56:42;99235.06;;;17.24;100.00
37848;BME280;23688;33.130;-117.188;2023-12-20T04:59:09;99240.28;;;17.21;100.00
37848;BME280;23688;33.130;-117.188;2023-12-20T05:01:35;99237.63;;;17.15;100.00
37848;BME280;23688;33.130;-117.188;2023-12-20T05:04:02;99241.03;;;17.09;100.00
37848;BME280;23688;33.130;-117.188;2023-12-20T05:06:28;99243.59;;;17.03;100.00
37848;BME280;23688;33.130;-117.188;2023-12-20T05:08:54;99249.69;;;16.97;100.00
37848;BME280;23688;33.130;-117.188;2023-12-20T05:11:21;99237.31;;;16.88;100.00
37848;BME280;23688;33.130;-117.188;2023-12-20T05:13:47;99249.50;;;16.85;100.00
37848;BME280;23688;33.130;-117.188;2023-12-20T05:16:14;99226.63;;;16.73;100.00
37848;BME280;23688;33.130;-117.188;2023-12-20T05:18:41;99237.22;;;16.81;100.00
37848;BME280;23688;33.130;-117.188;2023-12-20T05:21:07;99246.84;;;16.82;100.00
37848;BME280;23688;33.130;-117.188;2023-12-20T05:23:33;99253.88;;;16.83;100.00
37848;BME280;23688;33.130;-117.188;2023-12-20T05:26:00;99245.13;;;16.84;100.00
37848;BME280;23688;33.130;-117.188;2023-12-20T05:28:27;99251.28;;;16.86;100.00
37848;BME280;23688;33.130;-117.188;2023-12-20T05:30:53;99247.81;;;16.88;100.00
37848;BME280;23688;33.130;-117.188;2023-12-20T05:33:20;99243.47;;;16.92;100.00
37848;BME280;23688;33.130;-117.188;2023-12-20T05:35:46;99228.53;;;16.85;100.00
37848;BME280;23688;33.130;-117.188;2023-12-20T05:38:12;99247.00;;;16.94;100.00
37848;BME280;23688;33.130;-117.188;2023-12-20T05:40:39;99245.25;;;16.95;100.00
37848;BME280;23688;33.130;-117.188;2023-12-20T05:43:06;99233.03;;;16.97;100.00
37848;BME280;23688;33.130;-117.188;2023-12-20T05:45:32;99226.91;;;16.96;100.00
37848;BME280;23688;33.130;-117.188;2023-12-20T05:47:58;99235.72;;;17.00;100.00
37848;BME280;23688;33.130;-117.188;2023-12-20T05:50:25;99226.06;;;16.99;100.00
37848;BME280;23688;33.130;-117.188;2023-12-20T05:52:51;99231.34;;;17.00;100.00
37848;BME280;23688;33.130;-117.188;2023-12-20T05:55:17;99225.22;;;17.01;100.00
37848;BME280;23688;33.130;-117.188;2023-12-20T05:57:44;99217.31;;;16.95;100.00
37848;BME280;23688;33.130;-117.188;2023-12-20T06:00:10;99240.13;;;17.02;100.00
37848;BME280;23688;33.130;-117.188;2023-12-20T06:02:37;99233.97;;;17.02;100.00
37848;BME280;23688;33.130;-117.188;2023-12-20T06:05:06;99234.78;;;16.96;100.00
37848;BME280;23688;33.130;-117.188;2023-12-20T06:07:33;99233.97;;;17.00;100.00
37848;BME280;23688;33.130;-117.188;2023-12-20T06:10:00;99234.81;;;16.98;100.00
37848;BME280;23688;33.130;-117.188;2023-12-20T06:12:26;99243.53;;;16.95;100.00
37848;BME280;23688;33.130;-117.188;2023-12-20T06:14:54;99236.50;;;16.94;100.00
37848;BME280;23688;33.130;-117.188;2023-12-20T06:17:21;99242.63;;;16.95;100.00
37848;BME280;23688;33.130;-117.188;2023-12-20T06:19:47;99237.38;;;16.93;100.00
37848;BME280;23688;33.130;-117.188;2023-12-20T06:22:15;99233.00;;;16.94;100.00
37848;BME280;23688;33.130;-117.188;2023-12-20T06:24:41;99230.38;;;16.94;100.00
37848;BME280;23688;33.130;-117.188;2023-12-20T06:27:08;99230.38;;;16.94;100.00
37848;BME280;23688;33.130;-117.188;2023-12-20T06:29:34;99233.00;;;16.94;100.00
37848;BME280;23688;33.130;-117.188;2023-12-20T06:32:03;99233.88;;;16.94;100.00
37848;BME280;23688;33.130;-117.188;2023-12-20T06:34:30;99232.94;;;16.89;100.00
37848;BME280;23688;33.130;-117.188;2023-12-20T06:36:56;99236.50;;;16.93;100.00
37848;BME280;23688;33.130;-117.188;2023-12-20T06:39:23;99240.00;;;16.95;100.00
37848;BME280;23688;33.130;-117.188;2023-12-20T06:41:50;99218.00;;;16.80;100.00
37848;BME280;23688;33.130;-117.188;2023-12-20T06:44:17;99218.97;;;16.88;100.00
37848;BME280;23688;33.130;-117.188;2023-12-20T06:46:44;99222.47;;;16.89;100.00
37848;BME280;23688;33.130;-117.188;2023-12-20T06:49:10;99212.00;;;16.90;100.00
37848;BME280;23688;33.130;-117.188;2023-12-20T06:51:36;99218.22;;;16.97;100.00
37848;BME280;23688;33.130;-117.188;2023-12-20T06:54:03;99213.81;;;16.96;100.00
37848;BME280;23688;33.130;-117.188;2023-12-20T06:56:29;99204.13;;;16.92;100.00
37848;BME280;23688;33.130;-117.188;2023-12-20T06:58:55;99200.63;;;16.92;100.00
37848;BME280;23688;33.130;-117.188;2023-12-20T07:01:22;99201.50;;;16.89;100.00
37848;BME280;23688;33.130;-117.188;2023-12-20T07:03:48;99198.88;;;16.89;100.00
37848;BME280;23688;33.130;-117.188;2023-12-20T07:06:17;99189.16;;;16.80;100.00
37848;BME280;23688;33.130;-117.188;2023-12-20T07:08:45;99200.59;;;16.87;100.00
37848;BME280;23688;33.130;-117.188;2023-12-20T07:11:12;99199.69;;;16.85;100.00
37848;BME280;23688;33.130;-117.188;2023-12-20T07:13:38;99200.56;;;16.84;100.00
37848;BME280;23688;33.130;-117.188;2023-12-20T07:16:07;99197.03;;;16.82;100.00
37848;BME280;23688;33.130;-117.188;2023-12-20T07:18:33;99202.28;;;16.80;100.00
37848;BME280;23688;33.130;-117.188;2023-12-20T07:21:00;99205.78;;;16.81;100.00
37848;BME280;23688;33.130;-117.188;2023-12-20T07:23:26;99197.84;;;16.78;100.00
37848;BME280;23688;33.130;-117.188;2023-12-20T07:25:52;99192.66;;;16.81;100.00
37848;BME280;23688;33.130;-117.188;2023-12-20T07:28:19;99186.47;;;16.77;100.00
37848;BME280;23688;33.130;-117.188;2023-12-20T07:30:45;99180.28;;;16.71;100.00
37848;BME280;23688;33.130;-117.188;2023-12-20T07:33:13;99189.09;;;16.76;100.00
37848;BME280;23688;33.130;-117.188;2023-12-20T07:35:39;99196.03;;;16.74;100.00
37848;BME280;23688;33.130;-117.188;2023-12-20T07:38:06;99175.88;;;16.66;100.00
37848;BME280;23688;33.130;-117.188;2023-12-20T07:40:32;99175.91;;;16.71;100.00
37848;BME280;23688;33.130;-117.188;2023-12-20T07:42:58;99173.31;;;16.74;100.00
37848;BME280;23688;33.130;-117.188;2023-12-20T07:45:25;99172.44;;;16.75;100.00
37848;BME280;23688;33.130;-117.188;2023-12-20T07:47:51;99175.97;;;16.77;100.00
37848;BME280;23688;33.130;-117.188;2023-12-20T07:50:17;99163.72;;;16.75;100.00
37848;BME280;23688;33.130;-117.188;2023-12-20T07:52:44;99161.94;;;16.72;100.00
37848;BME280;23688;33.130;-117.188;2023-12-20T07:55:10;99155.75;;;16.67;100.00
37848;BME280;23688;33.130;-117.188;2023-12-20T07:57:36;99164.59;;;16.74;100.00
37848;BME280;23688;33.130;-117.188;2023-12-20T08:00:03;99151.44;;;16.71;100.00
37848;BME280;23688;33.130;-117.188;2023-12-20T08:02:30;99140.91;;;16.66;100.00
37848;BME280;23688;33.130;-117.188;2023-12-20T08:04:56;99142.66;;;16.65;100.00
37848;BME280;23688;33.130;-117.188;2023-12-20T08:07:22;99147.91;;;16.67;100.00
37848;BME280;23688;33.130;-117.188;2023-12-20T08:09:49;99128.59;;;16.60;100.00
37848;BME280;23688;33.130;-117.188;2023-12-20T08:12:17;99130.34;;;16.60;100.00
37848;BME280;23688;33.130;-117.188;2023-12-20T08:14:43;99136.50;;;16.62;100.00
37848;BME280;23688;33.130;-117.188;2023-12-20T08:17:10;99142.59;;;16.62;100.00
37848;BME280;23688;33.130;-117.188;2023-12-20T08:19:36;99129.41;;;16.55;100.00
37848;BME280;23688;33.130;-117.188;2023-12-20T08:22:03;99128.59;;;16.60;100.00
37848;BME280;23688;33.130;-117.188;2023-12-20T08:24:30;99130.34;;;16.60;100.00
37848;BME280;23688;33.130;-117.188;2023-12-20T08:26:56;99106.69;;;16.55;100.00
37848;BME280;23688;33.130;-117.188;2023-12-20T08:29:22;99117.28;;;16.61;100.00
37848;BME280;23688;33.130;-117.188;2023-12-20T08:31:53;99104.97;;;16.54;100.00
37848;BME280;23688;33.130;-117.188;2023-12-20T08:34:23;99112.03;;;16.61;100.00
37848;BME280;23688;33.130;-117.188;2023-12-20T08:36:50;99112.88;;;16.59;100.00
37848;BME280;23688;33.130;-117.188;2023-12-20T08:39:20;99094.44;;;16.51;100.00
37848;BME280;23688;33.130;-117.188;2023-12-20T08:41:46;99112.00;;;16.58;100.00
37848;BME280;23688;33.130;-117.188;2023-12-20T08:44:12;99108.47;;;16.56;100.00
37848;BME280;23688;33.130;-117.188;2023-12-20T08:46:39;99110.19;;;16.51;100.00
37848;BME280;23688;33.130;-117.188;2023-12-20T08:49:05;99098.75;;;16.47;100.00
37848;BME280;23688;33.130;-117.188;2023-12-20T08:51:32;99102.31;;;16.51;100.00
37848;BME280;23688;33.130;-117.188;2023-12-20T08:53:59;99104.94;;;16.51;100.00
37848;BME280;23688;33.130;-117.188;2023-12-20T08:56:25;99088.28;;;16.47;100.00
37848;BME280;23688;33.130;-117.188;2023-12-20T08:58:52;99095.38;;;16.58;100.00
37848;BME280;23688;33.130;-117.188;2023-12-20T09:01:18;99104.09;;;16.55;100.00
37848;BME280;23688;33.130;-117.188;2023-12-20T09:03:44;99080.34;;;16.40;100.00
37848;BME280;23688;33.130;-117.188;2023-12-20T09:06:11;99110.16;;;16.50;100.00
37848;BME280;23688;33.130;-117.188;2023-12-20T09:08:39;99103.16;;;16.48;100.00
37848;BME280;23688;33.130;-117.188;2023-12-20T09:11:06;99105.66;;;16.39;100.00
37848;BME280;23688;33.130;-117.188;2023-12-20T09:13:32;99119.56;;;16.34;100.00
37848;BME280;23688;33.130;-117.188;2023-12-20T09:15:59;99124.63;;;16.21;100.00
37848;BME280;23688;33.130;-117.188;2023-12-20T09:18:25;99122.72;;;16.07;100.00
37848;BME280;23688;33.130;-117.188;2023-12-20T09:20:52;99114.84;;;16.05;100.00
37848;BME280;23688;33.130;-117.188;2023-12-20T09:23:18;99116.59;;;16.04;100.00
37848;BME280;23688;33.130;-117.188;2023-12-20T09:25:44;99118.41;;;16.10;100.00
37848;BME280;23688;33.130;-117.188;2023-12-20T09:28:11;99132.47;;;16.18;100.00
37848;BME280;23688;33.130;-117.188;2023-12-20T09:30:37;99131.66;;;16.24;100.00
37848;BME280;23688;33.130;-117.188;2023-12-20T09:33:05;99121.16;;;16.21;100.00
37848;BME280;23688;33.130;-117.188;2023-12-20T09:35:33;99117.63;;;16.19;100.00
37848;BME280;23688;33.130;-117.188;2023-12-20T09:37:59;99124.63;;;16.20;100.00
37848;BME280;23688;33.130;-117.188;2023-12-20T09:40:28;99125.50;;;16.20;100.00
37848;BME280;23688;33.130;-117.188;2023-12-20T09:43:03;99132.50;;;16.21;100.00
37848;BME280;23688;33.130;-117.188;2023-12-20T09:45:32;99120.28;;;16.20;100.00
37848;BME280;23688;33.130;-117.188;2023-12-20T09:47:58;99121.19;;;16.22;100.00
37848;BME280;23688;33.130;-117.188;2023-12-20T09:50:26;99117.69;;;16.23;100.00
37848;BME280;23688;33.130;-117.188;2023-12-20T09:52:53;99131.63;;;16.19;100.00
37848;BME280;23688;33.130;-117.188;2023-12-20T09:55:25;99125.47;;;16.19;100.00
37848;BME280;23688;33.130;-117.188;2023-12-20T09:57:51;99122.03;;;16.21;100.00
37848;BME280;23688;33.130;-117.188;2023-12-20T10:00:18;99118.53;;;16.19;100.00
37848;BME280;23688;33.130;-117.188;2023-12-20T10:02:50;99109.81;;;16.22;100.00
37848;BME280;23688;33.130;-117.188;2023-12-20T10:05:17;99121.16;;;16.21;100.00
37848;BME280;23688;33.130;-117.188;2023-12-20T10:07:47;99128.97;;;16.18;100.00
37848;BME280;23688;33.130;-117.188;2023-12-20T10:10:14;99129.78;;;16.14;100.00
37848;BME280;23688;33.130;-117.188;2023-12-20T10:12:40;99120.97;;;16.05;100.00
37848;BME280;23688;33.130;-117.188;2023-12-20T10:15:08;99129.69;;;16.04;100.00
37848;BME280;23688;33.130;-117.188;2023-12-20T10:17:36;99126.19;;;16.05;100.00
37848;BME280;23688;33.130;-117.188;2023-12-20T10:20:03;99121.81;;;16.03;100.00
37848;BME280;23688;33.130;-117.188;2023-12-20T10:22:35;99116.53;;;16.00;100.00
37848;BME280;23688;33.130;-117.188;2023-12-20T10:25:01;99114.63;;;15.90;100.00
37848;BME280;23688;33.130;-117.188;2023-12-20T10:27:28;99118.03;;;15.84;100.00
37848;BME280;23688;33.130;-117.188;2023-12-20T10:29:54;99120.53;;;15.73;100.00
37848;BME280;23688;33.130;-117.188;2023-12-20T10:32:27;99107.34;;;15.69;100.00
37848;BME280;23688;33.130;-117.188;2023-12-20T10:34:55;99107.28;;;15.67;100.00
37848;BME280;23688;33.130;-117.188;2023-12-20T10:37:22;99107.28;;;15.67;100.00
37848;BME280;23688;33.130;-117.188;2023-12-20T10:39:54;99105.50;;;15.63;100.00
37848;BME280;23688;33.130;-117.188;2023-12-20T10:42:27;99103.03;;;15.71;100.00
37848;BME280;23688;33.130;-117.188;2023-12-20T10:44:53;99108.28;;;15.71;100.00
37848;BME280;23688;33.130;-117.188;2023-12-20T10:47:20;99103.78;;;15.65;100.00
37848;BME280;23688;33.130;-117.188;2023-12-20T10:49:47;99113.38;;;15.63;100.00
37848;BME280;23688;33.130;-117.188;2023-12-20T10:52:14;99108.88;;;15.54;100.00
37848;BME280;23688;33.130;-117.188;2023-12-20T10:54:40;99116.75;;;15.56;100.00
37848;BME280;23688;33.130;-117.188;2023-12-20T10:57:07;99120.19;;;15.53;100.00
37848;BME280;23688;33.130;-117.188;2023-12-20T10:59:36;99117.50;;;15.50;100.00
37848;BME280;23688;33.130;-117.188;2023-12-20T11:02:04;99118.34;;;15.48;100.00
37848;BME280;23688;33.130;-117.188;2023-12-20T11:04:50;99121.81;;;15.47;100.00
37848;BME280;23688;33.130;-117.188;2023-12-20T11:07:25;99119.13;;;15.42;100.00
37848;BME280;23688;33.130;-117.188;2023-12-20T11:10:21;99118.19;;;15.37;100.00
37848;BME280;23688;33.130;-117.188;2023-12-20T11:12:53;99112.75;;;15.26;100.00
37848;BME280;23688;33.130;-117.188;2023-12-20T11:15:21;99106.50;;;15.15;100.00
37848;BME280;23688;33.130;-117.188;2023-12-20T11:17:55;99119.72;;;15.24;100.00
37848;BME280;23688;33.130;-117.188;2023-12-20T11:20:38;99113.59;;;15.22;100.00
37848;BME280;23688;33.130;-117.188;2023-12-20T11:23:05;99114.50;;;15.24;100.00
37848;BME280;23688;33.130;-117.188;2023-12-20T11:25:48;99104.00;;;15.23;100.00
37848;BME280;23688;33.130;-117.188;2023-12-20T11:28:15;99089.97;;;15.17;100.00
37848;BME280;23688;33.130;-117.188;2023-12-20T11:33:39;99118.81;;;15.24;100.00
37848;BME280;23688;33.130;-117.188;2023-12-20T11:36:17;99101.34;;;15.21;100.00
37848;BME280;23688;33.130;-117.188;2023-12-20T11:38:56;99102.28;;;15.25;100.00
37848;BME280;23688;33.130;-117.188;2023-12-20T11:41:23;99095.16;;;15.16;100.00
37848;BME280;23688;33.130;-117.188;2023-12-20T11:43:53;99104.00;;;15.23;100.00
37848;BME280;23688;33.130;-117.188;2023-12-20T11:46:20;99108.38;;;15.22;100.00
37848;BME280;23688;33.130;-117.188;2023-12-20T11:48:48;99109.19;;;15.19;100.00
37848;BME280;23688;33.130;-117.188;2023-12-20T11:51:15;99111.69;;;15.12;100.00
37848;BME280;23688;33.130;-117.188;2023-12-20T11:53:41;99119.22;;;14.95;100.00
37848;BME280;23688;33.130;-117.188;2023-12-20T11:56:10;99119.97;;;14.89;100.00
37848;BME280;23688;33.130;-117.188;2023-12-20T11:58:38;99113.78;;;14.83;100.00
37848;BME280;23688;33.130;-117.188;2023-12-20T12:01:05;99123.50;;;14.91;100.00
37848;BME280;23688;33.130;-117.188;2023-12-20T12:03:33;99113.94;;;14.92;100.00
37848;BME280;23688;33.130;-117.188;2023-12-20T12:05:59;99119.25;;;14.96;100.00
37848;BME280;23688;33.130;-117.188;2023-12-20T12:08:26;99096.53;;;14.94;100.00
37848;BME280;23688;33.130;-117.188;2023-12-20T12:10:53;99118.44;;;15.01;100.00
37848;BME280;23688;33.130;-117.188;2023-12-20T12:13:19;99104.41;;;14.95;100.00
37848;BME280;23688;33.130;-117.188;2023-12-20T12:15:46;99127.25;;;15.06;100.00
37848;BME280;23688;33.130;-117.188;2023-12-20T12:18:16;99118.53;;;15.07;100.00
37848;BME280;23688;33.130;-117.188;2023-12-20T12:20:42;99122.06;;;15.09;100.00
37848;BME280;23688;33.130;-117.188;2023-12-20T12:23:09;99118.53;;;15.07;100.00
37848;BME280;23688;33.130;-117.188;2023-12-20T12:25:36;99109.00;;;15.07;100.00